createdAt,value
2022-12-26T00:02:01.124Z,89.66
2022-12-26T00:05:03.825Z,89.42
2022-12-26T00:08:08.031Z,89.80
2022-12-26T00:11:11.906Z,89.98
2022-12-26T00:14:16.285Z,90.34
2022-12-26T00:17:18.680Z,90.46
2022-12-26T00:20:21.253Z,90.63
2022-12-26T00:23:23.717Z,90.83
2022-12-26T00:26:28.516Z,90.74
2022-12-26T00:29:32.003Z,90.39
2022-12-26T00:32:34.380Z,91.31
2022-12-26T00:35:36.819Z,91.38
2022-12-26T00:38:41.327Z,91.74
2022-12-26T00:41:43.718Z,92.09
2022-12-26T00:44:46.097Z,92.14
2022-12-26T00:47:48.421Z,91.51
2022-12-26T00:50:50.998Z,91.16
2022-12-26T00:53:53.435Z,91.37
2022-12-26T00:56:55.812Z,91.62
2022-12-26T00:59:58.198Z,91.94
2022-12-26T01:03:00.828Z,92.11
2022-12-26T01:06:04.277Z,92.49
2022-12-26T01:09:06.806Z,91.97
2022-12-26T01:12:09.121Z,92.08
2022-12-26T01:15:11.642Z,92.57
2022-12-26T01:18:13.953Z,92.57
2022-12-26T01:21:16.338Z,92.08
2022-12-26T01:24:18.832Z,91.76
2022-12-26T01:27:21.738Z,92.02
2022-12-26T01:30:24.215Z,91.56
2022-12-26T01:33:26.573Z,91.63
2022-12-26T01:36:29.059Z,91.30
2022-12-26T01:39:31.396Z,91.09
2022-12-26T01:42:40.672Z,91.02
2022-12-26T01:45:51.044Z,90.96
2022-12-26T01:48:55.455Z,91.02
2022-12-26T01:52:04.141Z,90.82
2022-12-26T01:55:10.173Z,90.71
2022-12-26T01:58:17.225Z,91.32
2022-12-26T02:01:21.968Z,90.97
2022-12-26T02:04:51.816Z,90.99
2022-12-26T02:07:54.235Z,91.21
2022-12-26T02:11:08.439Z,91.23
2022-12-26T02:14:11.461Z,91.48
2022-12-26T02:17:14.077Z,91.38
2022-12-26T02:20:20.877Z,91.11
2022-12-26T02:23:41.843Z,91.46
2022-12-26T02:27:10.309Z,91.23
2022-12-26T02:30:31.181Z,90.91
2022-12-26T02:33:58.520Z,91.04
2022-12-26T02:37:21.085Z,90.44
2022-12-26T02:41:01.979Z,90.57
2022-12-26T02:44:40.768Z,90.66
2022-12-26T02:47:43.572Z,90.16
2022-12-26T02:51:13.313Z,90.08
2022-12-26T02:54:45.521Z,89.70
2022-12-26T02:58:18.533Z,88.98
2022-12-26T03:02:04.522Z,89.41
2022-12-26T03:05:34.995Z,89.49
2022-12-26T03:09:01.252Z,88.56
2022-12-26T03:12:42.034Z,89.14
2022-12-26T03:16:34.019Z,89.18
2022-12-26T03:19:58.204Z,89.96
2022-12-26T03:23:06.299Z,90.24
2022-12-26T03:26:42.063Z,89.68
2022-12-26T03:30:03.533Z,90.38
2022-12-26T03:33:26.767Z,90.17
2022-12-26T03:36:50.795Z,89.98
2022-12-26T03:40:17.768Z,90.05
2022-12-26T03:44:21.398Z,89.25
2022-12-26T03:47:47.745Z,89.43
2022-12-26T03:51:17.220Z,89.48
2022-12-26T03:54:56.949Z,89.24
2022-12-26T03:58:41.573Z,88.94
2022-12-26T04:02:04.435Z,89.58
2022-12-26T04:05:28.903Z,89.71
2022-12-26T04:09:07.932Z,89.83
2022-12-26T04:12:38.129Z,89.21
2022-12-26T04:16:10.431Z,89.62
2022-12-26T04:19:37.790Z,89.14
2022-12-26T04:23:11.976Z,89.66
2022-12-26T04:26:55.825Z,89.10
2022-12-26T04:30:17.055Z,89.58
2022-12-26T04:33:46.802Z,89.32
2022-12-26T04:37:17.225Z,89.40
2022-12-26T04:40:44.895Z,88.71
2022-12-26T04:44:09.018Z,88.26
2022-12-26T04:47:12.044Z,88.27
2022-12-26T04:50:15.471Z,88.13
2022-12-26T04:53:18.464Z,88.02
2022-12-26T04:56:20.822Z,87.39
2022-12-26T04:59:23.521Z,87.88
2022-12-26T05:02:44.303Z,87.52
2022-12-26T05:06:08.166Z,87.25
2022-12-26T05:09:30.342Z,87.73
2022-12-26T05:12:32.866Z,87.68
2022-12-26T05:15:56.755Z,87.86
2022-12-26T05:19:17.417Z,88.35
2022-12-26T05:22:39.103Z,86.64
2022-12-26T05:26:02.297Z,87.21
2022-12-26T05:29:05.502Z,87.27
2022-12-26T05:32:07.885Z,87.27
2022-12-26T05:35:10.514Z,87.13
2022-12-26T05:38:12.860Z,86.81
2022-12-26T05:41:16.467Z,86.56
2022-12-26T05:44:18.847Z,86.62
2022-12-26T05:47:21.245Z,86.24
2022-12-26T05:50:23.601Z,86.21
2022-12-26T05:53:26.673Z,86.93
2022-12-26T05:56:29.047Z,87.46
2022-12-26T05:59:31.375Z,86.79
2022-12-26T06:02:33.898Z,86.28
2022-12-26T06:05:36.409Z,85.97
2022-12-26T06:08:39.485Z,86.61
2022-12-26T06:11:48.514Z,86.57
2022-12-26T06:14:51.489Z,87.33
2022-12-26T06:17:55.036Z,86.86
2022-12-26T06:20:57.705Z,86.24
2022-12-26T06:24:00.116Z,86.37
2022-12-26T06:27:03.311Z,86.07
2022-12-26T06:30:06.169Z,85.50
2022-12-26T06:33:08.648Z,86.07
2022-12-26T06:36:13.913Z,85.80
2022-12-26T06:39:16.285Z,85.86
2022-12-26T06:42:18.821Z,86.54
2022-12-26T06:45:21.206Z,86.33
2022-12-26T06:48:25.033Z,86.39
2022-12-26T06:51:28.992Z,85.99
2022-12-26T06:54:31.296Z,86.42
2022-12-26T06:57:33.671Z,86.44
2022-12-26T07:00:36.237Z,86.27
2022-12-26T07:03:44.796Z,86.47
2022-12-26T07:06:51.199Z,86.32
2022-12-26T07:09:53.677Z,86.14
2022-12-26T07:12:56.352Z,86.39
2022-12-26T07:16:00.175Z,87.29
2022-12-26T07:19:03.953Z,86.75
2022-12-26T07:22:06.639Z,87.54
2022-12-26T07:25:09.416Z,87.34
2022-12-26T07:28:11.873Z,87.08
2022-12-26T07:31:19.071Z,87.86
2022-12-26T07:34:24.104Z,87.85
2022-12-26T07:37:30.253Z,86.47
2022-12-26T07:40:32.735Z,86.65
2022-12-26T07:43:35.097Z,87.01
2022-12-26T07:46:37.834Z,86.71
2022-12-26T07:49:40.393Z,86.88
2022-12-26T07:52:43.014Z,86.08
2022-12-26T07:55:45.491Z,85.69
2022-12-26T07:58:51.841Z,86.53
2022-12-26T08:01:54.507Z,86.04
2022-12-26T08:04:56.993Z,86.58
2022-12-26T08:07:59.388Z,86.95
2022-12-26T08:11:03.486Z,86.47
2022-12-26T08:14:05.867Z,85.87
2022-12-26T08:17:08.416Z,85.82
2022-12-26T08:20:10.996Z,85.86
2022-12-26T08:23:13.770Z,84.93
2022-12-26T08:26:20.886Z,84.06
2022-12-26T08:29:23.340Z,83.51
2022-12-26T08:32:25.801Z,84.00
2022-12-26T08:35:30.269Z,84.85
2022-12-26T08:38:33.984Z,84.96
2022-12-26T08:41:36.668Z,84.78
2022-12-26T08:44:39.051Z,84.48
2022-12-26T08:47:41.369Z,84.79
2022-12-26T08:50:43.760Z,84.94
2022-12-26T08:53:46.841Z,84.27
2022-12-26T08:56:49.219Z,83.32
2022-12-26T08:59:51.993Z,83.37
2022-12-26T09:02:54.564Z,82.91
2022-12-26T09:06:05.661Z,81.99
2022-12-26T09:09:13.669Z,81.60
2022-12-26T09:12:16.027Z,81.68
2022-12-26T09:15:18.419Z,80.85
2022-12-26T09:18:20.806Z,81.80
2022-12-26T09:21:23.560Z,82.03
2022-12-26T09:24:25.920Z,82.34
2022-12-26T09:27:29.313Z,81.21
2022-12-26T09:30:31.804Z,80.84
2022-12-26T09:33:37.632Z,80.57
2022-12-26T09:36:40.145Z,81.74
2022-12-26T09:39:42.555Z,81.70
2022-12-26T09:43:17.361Z,81.39
2022-12-26T09:46:34.849Z,81.96
2022-12-26T09:49:46.256Z,82.45
2022-12-26T09:53:00.944Z,83.63
2022-12-26T09:56:18.336Z,82.89
2022-12-26T09:59:34.427Z,80.99
2022-12-26T10:02:36.914Z,82.36
2022-12-26T10:06:03.478Z,82.08
2022-12-26T10:09:08.803Z,81.90
2022-12-26T10:12:32.723Z,82.30
2022-12-26T10:15:46.107Z,82.35
2022-12-26T10:18:51.257Z,83.65
2022-12-26T10:22:05.397Z,83.50
2022-12-26T10:25:21.651Z,84.35
2022-12-26T10:28:33.549Z,84.44
2022-12-26T10:31:42.528Z,84.76
2022-12-26T10:34:48.105Z,85.31
2022-12-26T10:37:53.721Z,85.64
2022-12-26T10:41:00.631Z,85.98
2022-12-26T10:44:03.832Z,86.07
2022-12-26T10:47:23.513Z,86.82
2022-12-26T10:50:29.464Z,87.26
2022-12-26T10:53:46.525Z,87.03
2022-12-26T10:56:51.729Z,86.36
2022-12-26T10:59:55.673Z,85.10
2022-12-26T11:03:06.232Z,85.98
2022-12-26T11:06:10.218Z,86.24
2022-12-26T11:09:38.260Z,85.92
2022-12-26T11:12:50.139Z,86.37
2022-12-26T11:15:53.504Z,86.15
2022-12-26T11:18:57.109Z,85.74
2022-12-26T11:22:22.544Z,87.16
2022-12-26T11:25:27.582Z,86.64
2022-12-26T11:28:32.236Z,87.39
2022-12-26T11:31:34.889Z,85.73
2022-12-26T11:34:46.347Z,85.25
2022-12-26T11:37:57.023Z,85.84
2022-12-26T11:41:18.375Z,86.23
2022-12-26T11:44:30.217Z,85.56
2022-12-26T11:47:32.663Z,85.68
2022-12-26T11:50:45.793Z,85.13
2022-12-26T11:53:48.095Z,86.61
2022-12-26T11:57:20.348Z,84.43
2022-12-26T12:00:24.535Z,85.18
2022-12-26T12:03:37.789Z,85.77
2022-12-26T12:07:00.906Z,84.66
2022-12-26T12:10:50.555Z,84.49
2022-12-26T12:14:23.817Z,83.83
2022-12-26T12:17:34.281Z,84.06
2022-12-26T12:21:04.357Z,83.97
2022-12-26T12:24:32.342Z,83.40
2022-12-26T12:27:59.409Z,83.60
2022-12-26T12:31:17.012Z,83.45
2022-12-26T12:34:22.362Z,83.66
2022-12-26T12:37:33.378Z,83.28
2022-12-26T12:41:06.158Z,83.06
2022-12-26T12:44:43.810Z,84.28
2022-12-26T12:48:15.585Z,84.01
2022-12-26T12:51:24.243Z,84.41
2022-12-26T12:54:57.197Z,83.71
2022-12-26T12:58:33.604Z,84.05
2022-12-26T13:01:47.344Z,83.33
2022-12-26T13:04:59.648Z,83.36
2022-12-26T13:08:11.224Z,84.12
2022-12-26T13:11:30.867Z,84.44
2022-12-26T13:14:40.577Z,83.94
2022-12-26T13:17:56.193Z,83.05
2022-12-26T13:21:06.772Z,83.64
2022-12-26T13:24:25.275Z,84.85
2022-12-26T13:27:31.600Z,83.50
2022-12-26T13:30:34.029Z,84.40
2022-12-26T13:33:36.644Z,84.53
2022-12-26T13:36:38.949Z,84.95
2022-12-26T13:39:41.740Z,85.09
2022-12-26T13:43:18.874Z,85.29
2022-12-26T13:46:35.108Z,84.87
2022-12-26T13:49:40.181Z,84.88
2022-12-26T13:52:43.740Z,85.68
2022-12-26T13:55:46.476Z,85.35
2022-12-26T13:59:13.013Z,85.76
2022-12-26T14:06:36.375Z,86.23
2022-12-26T14:10:02.004Z,86.53
2022-12-26T14:13:14.329Z,86.39
2022-12-26T14:16:24.436Z,86.03
2022-12-26T14:19:41.229Z,87.05
2022-12-26T14:23:10.305Z,86.37
2022-12-26T14:26:57.531Z,86.38
2022-12-26T14:30:18.480Z,86.39
2022-12-26T14:33:39.966Z,86.55
2022-12-26T14:36:54.535Z,86.98
2022-12-26T14:40:22.574Z,86.82
2022-12-26T14:43:36.868Z,87.57
2022-12-26T14:46:40.274Z,88.15
2022-12-26T14:49:43.058Z,87.66
2022-12-26T14:52:45.600Z,87.24
2022-12-26T14:55:52.262Z,87.04
2022-12-26T14:59:26.993Z,87.51
2022-12-26T15:02:35.723Z,87.31
2022-12-26T15:05:42.853Z,88.08
2022-12-26T15:08:45.179Z,88.29
2022-12-26T15:12:24.528Z,87.79
2022-12-26T15:15:48.777Z,87.89
2022-12-26T15:19:12.605Z,87.90
2022-12-26T15:22:33.620Z,87.99
2022-12-26T15:25:41.754Z,88.57
2022-12-26T15:28:47.012Z,88.61
2022-12-26T15:32:14.504Z,87.88
2022-12-26T15:35:36.417Z,88.39
2022-12-26T15:38:54.116Z,87.86
2022-12-26T15:42:03.553Z,87.27
2022-12-26T15:45:27.717Z,87.44
2022-12-26T15:48:56.343Z,87.15
2022-12-26T15:52:07.507Z,87.53
2022-12-26T15:55:17.938Z,87.73
2022-12-26T15:58:35.401Z,87.48
2022-12-26T16:01:39.310Z,87.27
2022-12-26T16:04:52.141Z,87.46
2022-12-26T16:08:19.293Z,87.80
2022-12-26T16:11:25.536Z,88.07
2022-12-26T16:14:39.472Z,88.46
2022-12-26T16:17:43.200Z,88.56
2022-12-26T16:21:05.560Z,88.13
2022-12-26T16:24:10.034Z,88.81
2022-12-26T16:27:18.639Z,88.91
2022-12-26T16:30:26.929Z,87.98
2022-12-26T16:33:32.738Z,88.42
2022-12-26T16:36:36.623Z,89.15
2022-12-26T16:39:39.328Z,88.42
2022-12-26T16:43:00.917Z,89.57
2022-12-26T16:46:06.107Z,89.47
2022-12-26T16:49:10.261Z,88.97
2022-12-26T16:52:48.346Z,89.04
2022-12-26T16:55:56.781Z,89.03
2022-12-26T16:59:06.323Z,89.73
2022-12-26T17:02:18.592Z,89.74
2022-12-26T17:05:26.008Z,88.98
2022-12-26T17:08:28.771Z,89.06
2022-12-26T17:11:35.274Z,88.07
2022-12-26T17:14:40.894Z,88.32
2022-12-26T17:17:45.995Z,88.82
2022-12-26T17:20:48.593Z,88.40
2022-12-26T17:24:09.225Z,88.67
2022-12-26T17:27:19.059Z,89.45
2022-12-26T17:30:30.574Z,89.48
2022-12-26T17:33:33.744Z,88.46
2022-12-26T17:37:17.138Z,88.60
2022-12-26T17:40:19.495Z,89.02
2022-12-26T17:43:31.023Z,89.05
2022-12-26T17:46:33.481Z,88.85
2022-12-26T17:49:36.303Z,89.22
2022-12-26T17:52:39.458Z,89.66
2022-12-26T17:55:41.983Z,90.60
2022-12-26T17:58:44.360Z,89.82
2022-12-26T18:01:46.913Z,89.68
2022-12-26T18:04:50.480Z,90.45
2022-12-26T18:07:53.469Z,90.18
2022-12-26T18:10:56.220Z,90.29
2022-12-26T18:13:58.599Z,89.59
2022-12-26T18:17:02.466Z,90.15
2022-12-26T18:20:06.582Z,90.46
2022-12-26T18:23:11.209Z,90.60
2022-12-26T18:26:22.326Z,90.23
2022-12-26T18:29:24.870Z,89.21
2022-12-26T18:32:30.966Z,90.15
2022-12-26T18:35:33.885Z,89.33
2022-12-26T18:38:36.281Z,89.94
2022-12-26T18:41:38.644Z,90.67
2022-12-26T18:44:42.548Z,90.79
2022-12-26T18:47:44.893Z,90.58
2022-12-26T18:50:47.702Z,90.32
2022-12-26T18:53:50.103Z,91.08
2022-12-26T18:56:52.646Z,90.56
2022-12-26T18:59:55.369Z,90.36
2022-12-26T19:02:57.949Z,89.46
2022-12-26T19:06:00.701Z,90.84
2022-12-26T19:09:03.436Z,90.53
2022-12-26T19:12:06.341Z,90.81
2022-12-26T19:15:09.957Z,91.44
2022-12-26T19:18:12.776Z,90.96
2022-12-26T19:21:16.301Z,90.53
2022-12-26T19:24:18.851Z,90.93
2022-12-26T19:27:21.831Z,90.67
2022-12-26T19:30:24.367Z,90.28
2022-12-26T19:33:27.047Z,90.96
2022-12-26T19:36:29.568Z,91.24
2022-12-26T19:39:32.180Z,91.30
2022-12-26T19:42:37.321Z,91.46
2022-12-26T19:45:40.121Z,91.60
2022-12-26T19:48:43.454Z,90.52
2022-12-26T19:51:46.436Z,90.83
2022-12-26T19:54:49.293Z,91.34
2022-12-26T19:57:51.981Z,90.91
2022-12-26T20:00:54.897Z,91.26
2022-12-26T20:03:59.299Z,91.24
2022-12-26T20:07:01.798Z,90.95
2022-12-26T20:10:05.134Z,90.56
2022-12-26T20:13:07.569Z,90.41
2022-12-26T20:16:37.535Z,91.11
2022-12-26T20:19:36.663Z,91.41
2022-12-26T20:22:39.054Z,91.53
2022-12-26T20:25:41.584Z,91.78
2022-12-26T20:28:44.528Z,90.07
2022-12-26T20:31:47.264Z,89.92
2022-12-26T20:34:49.656Z,90.17
2022-12-26T20:37:52.206Z,90.83
2022-12-26T20:40:54.871Z,91.01
2022-12-26T20:43:58.382Z,90.47
2022-12-26T20:47:00.776Z,91.21
2022-12-26T20:50:03.377Z,90.75
2022-12-26T20:53:05.938Z,89.69
2022-12-26T20:56:09.220Z,90.46
2022-12-26T20:59:11.871Z,90.19
2022-12-26T21:02:14.813Z,90.52
2022-12-26T21:05:17.853Z,90.46
2022-12-26T21:08:21.103Z,90.24
2022-12-26T21:11:25.281Z,90.46
2022-12-26T21:14:27.748Z,90.28
2022-12-26T21:17:30.081Z,90.50
2022-12-26T21:20:32.489Z,90.04
2022-12-26T21:23:36.225Z,89.91
2022-12-26T21:26:41.894Z,90.84
2022-12-26T21:29:44.508Z,90.34
2022-12-26T21:32:46.898Z,90.43
2022-12-26T21:35:53.220Z,90.85
2022-12-26T21:38:57.009Z,91.10
2022-12-26T21:42:00.475Z,91.41
2022-12-26T21:45:02.994Z,90.23
2022-12-26T21:48:06.000Z,91.05
2022-12-26T21:51:08.992Z,90.60
2022-12-26T21:54:29.747Z,90.05
2022-12-26T21:57:34.262Z,89.18
2022-12-26T22:00:37.140Z,89.32
2022-12-26T22:03:57.893Z,90.52
2022-12-26T22:07:00.344Z,91.31
2022-12-26T22:10:04.623Z,91.04
2022-12-26T22:13:07.287Z,90.57
2022-12-26T22:16:11.713Z,90.98
2022-12-26T22:19:14.336Z,91.35
2022-12-26T22:22:16.843Z,92.03
2022-12-26T22:25:19.913Z,92.46
2022-12-26T22:28:23.547Z,92.26
2022-12-26T22:31:28.903Z,91.54
2022-12-26T22:34:31.279Z,92.22
2022-12-26T22:37:33.665Z,90.76
2022-12-26T22:40:36.350Z,91.51
2022-12-26T22:43:38.814Z,91.70
2022-12-26T22:46:42.035Z,91.23
2022-12-26T22:49:44.580Z,91.30
2022-12-26T22:52:47.145Z,90.98
2022-12-26T22:55:58.314Z,90.99
2022-12-26T22:59:01.012Z,91.75
2022-12-26T23:02:04.023Z,92.29
2022-12-26T23:05:10.754Z,92.59
2022-12-26T23:08:22.184Z,92.43
2022-12-26T23:11:33.938Z,92.80
2022-12-26T23:14:37.674Z,93.31
2022-12-26T23:18:02.079Z,92.75
2022-12-26T23:21:27.857Z,91.84
2022-12-26T23:24:32.168Z,92.48
2022-12-26T23:27:52.887Z,92.34
2022-12-26T23:30:55.370Z,91.66
2022-12-26T23:33:57.758Z,91.40
2022-12-26T23:37:00.373Z,92.07
2022-12-26T23:40:03.375Z,91.76
2022-12-26T23:43:05.847Z,91.13
2022-12-26T23:46:10.195Z,91.11
2022-12-26T23:49:16.028Z,90.65
2022-12-26T23:52:18.565Z,90.73
2022-12-26T23:55:20.944Z,90.62
2022-12-26T23:58:23.516Z,90.25
